sensor_id;sensor_type;location;lat;lon;timestamp;P1;durP1;ratioP1;P2;durP2;ratioP2
70975;SDS011;58635;51.198;6.010;2022-10-16T00:01:45;4.88;;;2.00;;
70975;SDS011;58635;51.198;6.010;2022-10-16T00:04:11;4.65;;;2.20;;
70975;SDS011;58635;51.198;6.010;2022-10-16T00:06:36;4.00;;;1.98;;
70975;SDS011;58635;51.198;6.010;2022-10-16T00:09:02;4.03;;;2.03;;
70975;SDS011;58635;51.198;6.010;2022-10-16T00:11:29;4.75;;;2.25;;
70975;SDS011;58635;51.198;6.010;2022-10-16T00:13:59;3.97;;;2.00;;
70975;SDS011;58635;51.198;6.010;2022-10-16T00:16:27;5.53;;;2.42;;
70975;SDS011;58635;51.198;6.010;2022-10-16T00:18:53;5.15;;;1.95;;
70975;SDS011;58635;51.198;6.010;2022-10-16T00:21:20;3.58;;;1.90;;
70975;SDS011;58635;51.198;6.010;2022-10-16T00:23:50;6.85;;;2.08;;
70975;SDS011;58635;51.198;6.010;2022-10-16T00:26:17;4.38;;;1.70;;
70975;SDS011;58635;51.198;6.010;2022-10-16T00:28:45;4.03;;;1.83;;
70975;SDS011;58635;51.198;6.010;2022-10-16T00:31:12;4.10;;;1.92;;
70975;SDS011;58635;51.198;6.010;2022-10-16T00:33:38;4.25;;;1.80;;
70975;SDS011;58635;51.198;6.010;2022-10-16T00:36:04;6.03;;;2.05;;
70975;SDS011;58635;51.198;6.010;2022-10-16T00:38:31;2.92;;;1.40;;
70975;SDS011;58635;51.198;6.010;2022-10-16T00:40:57;2.85;;;1.70;;
70975;SDS011;58635;51.198;6.010;2022-10-16T00:46:03;6.57;;;1.60;;
70975;SDS011;58635;51.198;6.010;2022-10-16T00:48:35;3.42;;;1.63;;
70975;SDS011;58635;51.198;6.010;2022-10-16T00:51:00;4.20;;;1.65;;
70975;SDS011;58635;51.198;6.010;2022-10-16T00:53:26;3.95;;;2.00;;
70975;SDS011;58635;51.198;6.010;2022-10-16T00:55:52;3.45;;;1.88;;
70975;SDS011;58635;51.198;6.010;2022-10-16T00:58:18;6.22;;;1.95;;
70975;SDS011;58635;51.198;6.010;2022-10-16T01:00:43;5.65;;;1.58;;
70975;SDS011;58635;51.198;6.010;2022-10-16T01:06:23;2.53;;;1.40;;
70975;SDS011;58635;51.198;6.010;2022-10-16T01:09:11;3.90;;;1.50;;
70975;SDS011;58635;51.198;6.010;2022-10-16T01:12:45;3.28;;;1.50;;
70975;SDS011;58635;51.198;6.010;2022-10-16T01:17:45;2.33;;;1.25;;
70975;SDS011;58635;51.198;6.010;2022-10-16T01:20:22;2.88;;;1.35;;
70975;SDS011;58635;51.198;6.010;2022-10-16T01:22:56;5.03;;;1.63;;
70975;SDS011;58635;51.198;6.010;2022-10-16T01:28:36;4.93;;;1.63;;
70975;SDS011;58635;51.198;6.010;2022-10-16T01:31:06;4.82;;;1.30;;
70975;SDS011;58635;51.198;6.010;2022-10-16T01:33:38;4.35;;;1.60;;
70975;SDS011;58635;51.198;6.010;2022-10-16T01:36:13;5.00;;;1.45;;
70975;SDS011;58635;51.198;6.010;2022-10-16T01:38:43;3.00;;;1.25;;
70975;SDS011;58635;51.198;6.010;2022-10-16T01:41:30;3.60;;;1.20;;
70975;SDS011;58635;51.198;6.010;2022-10-16T01:46:30;2.22;;;1.10;;
70975;SDS011;58635;51.198;6.010;2022-10-16T01:48:56;3.85;;;1.40;;
70975;SDS011;58635;51.198;6.010;2022-10-16T01:51:24;2.83;;;1.38;;
70975;SDS011;58635;51.198;6.010;2022-10-16T01:53:52;4.18;;;1.40;;
70975;SDS011;58635;51.198;6.010;2022-10-16T01:56:20;2.90;;;1.35;;
70975;SDS011;58635;51.198;6.010;2022-10-16T01:58:55;2.30;;;1.20;;
70975;SDS011;58635;51.198;6.010;2022-10-16T02:01:23;2.65;;;1.20;;
70975;SDS011;58635;51.198;6.010;2022-10-16T02:03:52;3.05;;;1.38;;
70975;SDS011;58635;51.198;6.010;2022-10-16T02:06:21;3.17;;;1.40;;
70975;SDS011;58635;51.198;6.010;2022-10-16T02:08:48;3.10;;;1.15;;
70975;SDS011;58635;51.198;6.010;2022-10-16T02:11:13;3.50;;;1.33;;
70975;SDS011;58635;51.198;6.010;2022-10-16T02:13:41;4.20;;;1.40;;
70975;SDS011;58635;51.198;6.010;2022-10-16T02:16:10;2.42;;;1.30;;
70975;SDS011;58635;51.198;6.010;2022-10-16T02:18:36;3.20;;;1.30;;
70975;SDS011;58635;51.198;6.010;2022-10-16T02:21:23;2.65;;;1.10;;
70975;SDS011;58635;51.198;6.010;2022-10-16T02:26:51;3.58;;;1.50;;
70975;SDS011;58635;51.198;6.010;2022-10-16T02:29:27;5.18;;;1.20;;
70975;SDS011;58635;51.198;6.010;2022-10-16T02:32:01;5.18;;;1.50;;
70975;SDS011;58635;51.198;6.010;2022-10-16T02:34:29;3.28;;;1.10;;
70975;SDS011;58635;51.198;6.010;2022-10-16T02:36:57;2.08;;;1.23;;
70975;SDS011;58635;51.198;6.010;2022-10-16T02:39:24;4.25;;;1.25;;
70975;SDS011;58635;51.198;6.010;2022-10-16T02:41:52;2.53;;;1.23;;
70975;SDS011;58635;51.198;6.010;2022-10-16T02:44:17;3.83;;;1.25;;
70975;SDS011;58635;51.198;6.010;2022-10-16T02:46:43;3.15;;;1.10;;
70975;SDS011;58635;51.198;6.010;2022-10-16T02:49:08;3.50;;;1.23;;
70975;SDS011;58635;51.198;6.010;2022-10-16T02:51:33;3.45;;;1.20;;
70975;SDS011;58635;51.198;6.010;2022-10-16T02:53:59;3.38;;;1.23;;
70975;SDS011;58635;51.198;6.010;2022-10-16T02:56:24;2.17;;;1.10;;
70975;SDS011;58635;51.198;6.010;2022-10-16T02:58:50;3.08;;;1.00;;
70975;SDS011;58635;51.198;6.010;2022-10-16T03:01:15;2.97;;;1.00;;
70975;SDS011;58635;51.198;6.010;2022-10-16T03:03:41;4.03;;;1.30;;
70975;SDS011;58635;51.198;6.010;2022-10-16T03:06:07;3.90;;;1.33;;
70975;SDS011;58635;51.198;6.010;2022-10-16T03:08:32;2.60;;;1.20;;
70975;SDS011;58635;51.198;6.010;2022-10-16T03:10:58;3.65;;;1.17;;
70975;SDS011;58635;51.198;6.010;2022-10-16T03:13:23;2.85;;;1.10;;
70975;SDS011;58635;51.198;6.010;2022-10-16T03:15:49;3.45;;;1.13;;
70975;SDS011;58635;51.198;6.010;2022-10-16T03:18:14;3.22;;;1.08;;
70975;SDS011;58635;51.198;6.010;2022-10-16T03:20:40;3.70;;;1.10;;
70975;SDS011;58635;51.198;6.010;2022-10-16T03:23:05;2.90;;;1.33;;
70975;SDS011;58635;51.198;6.010;2022-10-16T03:25:33;3.38;;;1.20;;
70975;SDS011;58635;51.198;6.010;2022-10-16T03:27:58;3.05;;;1.23;;
70975;SDS011;58635;51.198;6.010;2022-10-16T03:30:23;2.80;;;1.20;;
70975;SDS011;58635;51.198;6.010;2022-10-16T03:32:49;2.95;;;1.15;;
70975;SDS011;58635;51.198;6.010;2022-10-16T03:35:18;3.75;;;1.27;;
70975;SDS011;58635;51.198;6.010;2022-10-16T03:37:47;2.92;;;1.13;;
70975;SDS011;58635;51.198;6.010;2022-10-16T03:40:12;2.13;;;1.20;;
70975;SDS011;58635;51.198;6.010;2022-10-16T03:42:38;1.98;;;1.10;;
70975;SDS011;58635;51.198;6.010;2022-10-16T03:45:04;3.30;;;1.30;;
70975;SDS011;58635;51.198;6.010;2022-10-16T03:47:30;2.63;;;0.98;;
70975;SDS011;58635;51.198;6.010;2022-10-16T03:49:58;4.30;;;1.25;;
70975;SDS011;58635;51.198;6.010;2022-10-16T03:52:23;3.72;;;1.10;;
70975;SDS011;58635;51.198;6.010;2022-10-16T03:54:49;2.85;;;1.42;;
70975;SDS011;58635;51.198;6.010;2022-10-16T03:57:14;2.15;;;1.10;;
70975;SDS011;58635;51.198;6.010;2022-10-16T03:59:39;2.97;;;1.20;;
70975;SDS011;58635;51.198;6.010;2022-10-16T04:02:05;2.92;;;1.17;;
70975;SDS011;58635;51.198;6.010;2022-10-16T04:04:30;3.70;;;1.15;;
70975;SDS011;58635;51.198;6.010;2022-10-16T04:06:56;4.30;;;1.63;;
70975;SDS011;58635;51.198;6.010;2022-10-16T04:09:21;2.83;;;1.45;;
70975;SDS011;58635;51.198;6.010;2022-10-16T04:11:46;5.00;;;1.25;;
70975;SDS011;58635;51.198;6.010;2022-10-16T04:14:12;3.05;;;1.50;;
70975;SDS011;58635;51.198;6.010;2022-10-16T04:16:37;5.35;;;1.58;;
70975;SDS011;58635;51.198;6.010;2022-10-16T04:19:03;2.97;;;1.30;;
70975;SDS011;58635;51.198;6.010;2022-10-16T04:21:28;2.78;;;1.13;;
70975;SDS011;58635;51.198;6.010;2022-10-16T04:23:53;3.08;;;1.42;;
70975;SDS011;58635;51.198;6.010;2022-10-16T04:26:19;3.33;;;1.20;;
70975;SDS011;58635;51.198;6.010;2022-10-16T04:28:44;5.63;;;1.30;;
70975;SDS011;58635;51.198;6.010;2022-10-16T04:31:10;3.30;;;1.38;;
70975;SDS011;58635;51.198;6.010;2022-10-16T04:33:35;3.60;;;1.38;;
70975;SDS011;58635;51.198;6.010;2022-10-16T04:36:01;2.42;;;1.10;;
70975;SDS011;58635;51.198;6.010;2022-10-16T04:38:27;3.58;;;1.50;;
70975;SDS011;58635;51.198;6.010;2022-10-16T04:40:53;3.63;;;1.20;;
70975;SDS011;58635;51.198;6.010;2022-10-16T04:43:18;3.35;;;1.48;;
70975;SDS011;58635;51.198;6.010;2022-10-16T04:45:45;2.65;;;1.30;;
70975;SDS011;58635;51.198;6.010;2022-10-16T04:48:11;2.15;;;1.10;;
70975;SDS011;58635;51.198;6.010;2022-10-16T04:50:36;4.13;;;1.50;;
70975;SDS011;58635;51.198;6.010;2022-10-16T04:53:01;3.78;;;1.20;;
70975;SDS011;58635;51.198;6.010;2022-10-16T04:55:27;3.97;;;1.50;;
70975;SDS011;58635;51.198;6.010;2022-10-16T04:57:52;4.75;;;1.20;;
70975;SDS011;58635;51.198;6.010;2022-10-16T05:00:18;2.60;;;1.20;;
70975;SDS011;58635;51.198;6.010;2022-10-16T05:02:43;3.72;;;1.20;;
70975;SDS011;58635;51.198;6.010;2022-10-16T05:05:08;5.32;;;1.73;;
70975;SDS011;58635;51.198;6.010;2022-10-16T05:07:34;2.40;;;1.30;;
70975;SDS011;58635;51.198;6.010;2022-10-16T05:09:59;3.80;;;1.30;;
70975;SDS011;58635;51.198;6.010;2022-10-16T05:12:25;2.92;;;1.40;;
70975;SDS011;58635;51.198;6.010;2022-10-16T05:14:50;3.72;;;1.52;;
70975;SDS011;58635;51.198;6.010;2022-10-16T05:17:15;2.10;;;1.27;;
70975;SDS011;58635;51.198;6.010;2022-10-16T05:19:41;3.55;;;1.50;;
70975;SDS011;58635;51.198;6.010;2022-10-16T05:22:06;3.97;;;1.75;;
70975;SDS011;58635;51.198;6.010;2022-10-16T05:24:32;3.35;;;1.55;;
70975;SDS011;58635;51.198;6.010;2022-10-16T05:26:58;3.22;;;1.30;;
70975;SDS011;58635;51.198;6.010;2022-10-16T05:29:23;2.92;;;1.55;;
70975;SDS011;58635;51.198;6.010;2022-10-16T05:31:52;5.10;;;1.73;;
70975;SDS011;58635;51.198;6.010;2022-10-16T05:34:18;5.07;;;1.60;;
70975;SDS011;58635;51.198;6.010;2022-10-16T05:36:44;4.72;;;1.60;;
70975;SDS011;58635;51.198;6.010;2022-10-16T05:39:10;3.00;;;1.70;;
70975;SDS011;58635;51.198;6.010;2022-10-16T05:41:36;2.78;;;1.48;;
70975;SDS011;58635;51.198;6.010;2022-10-16T05:44:04;3.70;;;1.65;;
70975;SDS011;58635;51.198;6.010;2022-10-16T05:46:31;2.83;;;1.75;;
70975;SDS011;58635;51.198;6.010;2022-10-16T05:48:57;3.63;;;2.08;;
70975;SDS011;58635;51.198;6.010;2022-10-16T05:51:22;3.17;;;1.85;;
70975;SDS011;58635;51.198;6.010;2022-10-16T05:53:48;3.05;;;1.77;;
70975;SDS011;58635;51.198;6.010;2022-10-16T05:56:14;5.10;;;2.25;;
70975;SDS011;58635;51.198;6.010;2022-10-16T05:58:40;4.95;;;2.15;;
70975;SDS011;58635;51.198;6.010;2022-10-16T06:01:06;4.57;;;2.03;;
70975;SDS011;58635;51.198;6.010;2022-10-16T06:03:34;3.58;;;1.80;;
70975;SDS011;58635;51.198;6.010;2022-10-16T06:06:06;5.63;;;2.05;;
70975;SDS011;58635;51.198;6.010;2022-10-16T06:08:33;5.45;;;2.10;;
70975;SDS011;58635;51.198;6.010;2022-10-16T06:11:02;3.85;;;1.80;;
70975;SDS011;58635;51.198;6.010;2022-10-16T06:13:29;5.47;;;2.28;;
70975;SDS011;58635;51.198;6.010;2022-10-16T06:15:56;3.85;;;2.00;;
70975;SDS011;58635;51.198;6.010;2022-10-16T06:18:23;3.50;;;2.05;;
70975;SDS011;58635;51.198;6.010;2022-10-16T06:20:52;6.22;;;2.13;;
70975;SDS011;58635;51.198;6.010;2022-10-16T06:23:18;3.67;;;2.00;;
70975;SDS011;58635;51.198;6.010;2022-10-16T06:25:43;4.55;;;2.22;;
70975;SDS011;58635;51.198;6.010;2022-10-16T06:28:09;4.70;;;2.17;;
70975;SDS011;58635;51.198;6.010;2022-10-16T06:30:34;6.25;;;2.10;;
70975;SDS011;58635;51.198;6.010;2022-10-16T06:33:00;4.60;;;1.92;;
70975;SDS011;58635;51.198;6.010;2022-10-16T06:35:25;4.82;;;2.00;;
70975;SDS011;58635;51.198;6.010;2022-10-16T06:37:52;4.35;;;1.80;;
70975;SDS011;58635;51.198;6.010;2022-10-16T06:40:18;4.28;;;1.80;;
70975;SDS011;58635;51.198;6.010;2022-10-16T06:42:43;3.78;;;1.90;;
70975;SDS011;58635;51.198;6.010;2022-10-16T06:45:09;4.03;;;1.90;;
70975;SDS011;58635;51.198;6.010;2022-10-16T06:47:35;5.53;;;2.72;;
70975;SDS011;58635;51.198;6.010;2022-10-16T06:50:00;7.03;;;3.47;;
70975;SDS011;58635;51.198;6.010;2022-10-16T06:52:27;9.75;;;3.90;;
70975;SDS011;58635;51.198;6.010;2022-10-16T06:54:53;5.43;;;3.25;;
70975;SDS011;58635;51.198;6.010;2022-10-16T06:57:18;4.07;;;2.70;;
70975;SDS011;58635;51.198;6.010;2022-10-16T06:59:44;6.32;;;3.00;;
70975;SDS011;58635;51.198;6.010;2022-10-16T07:02:09;6.10;;;3.88;;
70975;SDS011;58635;51.198;6.010;2022-10-16T07:04:35;7.75;;;3.95;;
70975;SDS011;58635;51.198;6.010;2022-10-16T07:07:01;6.68;;;3.58;;
70975;SDS011;58635;51.198;6.010;2022-10-16T07:09:26;8.35;;;5.05;;
70975;SDS011;58635;51.198;6.010;2022-10-16T07:11:52;7.28;;;4.38;;
70975;SDS011;58635;51.198;6.010;2022-10-16T07:14:18;6.45;;;3.70;;
70975;SDS011;58635;51.198;6.010;2022-10-16T07:16:45;6.65;;;2.92;;
70975;SDS011;58635;51.198;6.010;2022-10-16T07:19:11;4.75;;;2.70;;
70975;SDS011;58635;51.198;6.010;2022-10-16T07:21:39;6.28;;;2.45;;
70975;SDS011;58635;51.198;6.010;2022-10-16T07:24:06;5.05;;;2.30;;
70975;SDS011;58635;51.198;6.010;2022-10-16T07:26:36;4.13;;;2.22;;
70975;SDS011;58635;51.198;6.010;2022-10-16T07:29:04;4.82;;;2.20;;
70975;SDS011;58635;51.198;6.010;2022-10-16T07:31:31;4.20;;;2.30;;
70975;SDS011;58635;51.198;6.010;2022-10-16T07:33:57;3.90;;;2.40;;
70975;SDS011;58635;51.198;6.010;2022-10-16T07:36:24;4.63;;;2.80;;
70975;SDS011;58635;51.198;6.010;2022-10-16T07:38:49;5.15;;;2.42;;
70975;SDS011;58635;51.198;6.010;2022-10-16T07:41:15;5.30;;;2.47;;
70975;SDS011;58635;51.198;6.010;2022-10-16T07:43:49;6.63;;;2.95;;
70975;SDS011;58635;51.198;6.010;2022-10-16T07:48:42;4.53;;;2.22;;
70975;SDS011;58635;51.198;6.010;2022-10-16T07:51:12;4.18;;;2.00;;
70975;SDS011;58635;51.198;6.010;2022-10-16T07:53:39;6.80;;;2.70;;
70975;SDS011;58635;51.198;6.010;2022-10-16T07:56:05;10.00;;;3.55;;
70975;SDS011;58635;51.198;6.010;2022-10-16T07:58:32;4.90;;;2.70;;
70975;SDS011;58635;51.198;6.010;2022-10-16T08:00:59;6.15;;;2.70;;
70975;SDS011;58635;51.198;6.010;2022-10-16T08:03:29;5.47;;;3.40;;
70975;SDS011;58635;51.198;6.010;2022-10-16T08:05:56;8.80;;;5.05;;
70975;SDS011;58635;51.198;6.010;2022-10-16T08:08:22;3.95;;;2.10;;
70975;SDS011;58635;51.198;6.010;2022-10-16T08:10:56;2.63;;;1.65;;
70975;SDS011;58635;51.198;6.010;2022-10-16T08:13:22;4.50;;;1.92;;
70975;SDS011;58635;51.198;6.010;2022-10-16T08:15:48;4.40;;;1.73;;
70975;SDS011;58635;51.198;6.010;2022-10-16T08:18:14;4.05;;;1.67;;
70975;SDS011;58635;51.198;6.010;2022-10-16T08:20:40;4.18;;;1.80;;
70975;SDS011;58635;51.198;6.010;2022-10-16T08:23:06;6.88;;;1.88;;
70975;SDS011;58635;51.198;6.010;2022-10-16T08:25:34;4.35;;;1.83;;
70975;SDS011;58635;51.198;6.010;2022-10-16T08:28:03;4.68;;;1.80;;
70975;SDS011;58635;51.198;6.010;2022-10-16T08:30:29;4.30;;;2.50;;
70975;SDS011;58635;51.198;6.010;2022-10-16T08:32:55;5.82;;;2.60;;
70975;SDS011;58635;51.198;6.010;2022-10-16T08:35:20;5.78;;;1.88;;
70975;SDS011;58635;51.198;6.010;2022-10-16T08:37:45;5.32;;;1.52;;
70975;SDS011;58635;51.198;6.010;2022-10-16T08:40:22;3.38;;;1.40;;
70975;SDS011;58635;51.198;6.010;2022-10-16T08:45:32;6.20;;;1.55;;
70975;SDS011;58635;51.198;6.010;2022-10-16T08:48:20;6.05;;;2.25;;
70975;SDS011;58635;51.198;6.010;2022-10-16T08:50:48;3.38;;;1.75;;
70975;SDS011;58635;51.198;6.010;2022-10-16T08:53:22;4.82;;;1.50;;
70975;SDS011;58635;51.198;6.010;2022-10-16T08:55:54;4.15;;;1.52;;
70975;SDS011;58635;51.198;6.010;2022-10-16T08:58:21;4.13;;;1.52;;
70975;SDS011;58635;51.198;6.010;2022-10-16T09:00:55;3.85;;;1.40;;
70975;SDS011;58635;51.198;6.010;2022-10-16T09:06:00;4.00;;;1.23;;
70975;SDS011;58635;51.198;6.010;2022-10-16T09:11:34;3.30;;;1.63;;
70975;SDS011;58635;51.198;6.010;2022-10-16T09:16:41;3.05;;;1.15;;
70975;SDS011;58635;51.198;6.010;2022-10-16T09:19:36;3.50;;;1.30;;
70975;SDS011;58635;51.198;6.010;2022-10-16T09:22:25;6.55;;;1.50;;
70975;SDS011;58635;51.198;6.010;2022-10-16T09:24:54;3.55;;;1.30;;
70975;SDS011;58635;51.198;6.010;2022-10-16T09:27:24;3.42;;;1.55;;
70975;SDS011;58635;51.198;6.010;2022-10-16T09:29:51;2.28;;;1.10;;
70975;SDS011;58635;51.198;6.010;2022-10-16T09:32:18;3.15;;;1.20;;
70975;SDS011;58635;51.198;6.010;2022-10-16T09:34:47;4.50;;;1.35;;
70975;SDS011;58635;51.198;6.010;2022-10-16T09:37:17;3.90;;;1.13;;
70975;SDS011;58635;51.198;6.010;2022-10-16T09:39:48;3.03;;;1.20;;
70975;SDS011;58635;51.198;6.010;2022-10-16T09:42:17;3.00;;;1.10;;
70975;SDS011;58635;51.198;6.010;2022-10-16T09:44:49;2.08;;;0.90;;
70975;SDS011;58635;51.198;6.010;2022-10-16T09:47:16;6.90;;;2.00;;
70975;SDS011;58635;51.198;6.010;2022-10-16T09:50:05;5.40;;;1.80;;
70975;SDS011;58635;51.198;6.010;2022-10-16T09:53:10;3.70;;;1.20;;
70975;SDS011;58635;51.198;6.010;2022-10-16T09:55:47;4.35;;;1.25;;
70975;SDS011;58635;51.198;6.010;2022-10-16T09:58:17;6.63;;;1.10;;
70975;SDS011;58635;51.198;6.010;2022-10-16T10:00:48;7.70;;;1.52;;
70975;SDS011;58635;51.198;6.010;2022-10-16T10:03:23;4.95;;;1.38;;
70975;SDS011;58635;51.198;6.010;2022-10-16T10:05:59;4.05;;;1.05;;
70975;SDS011;58635;51.198;6.010;2022-10-16T10:08:32;3.05;;;1.20;;
70975;SDS011;58635;51.198;6.010;2022-10-16T10:10:58;3.35;;;1.10;;
70975;SDS011;58635;51.198;6.010;2022-10-16T10:13:24;4.03;;;1.10;;
70975;SDS011;58635;51.198;6.010;2022-10-16T10:15:52;3.90;;;1.33;;
70975;SDS011;58635;51.198;6.010;2022-10-16T10:18:18;4.93;;;1.30;;
70975;SDS011;58635;51.198;6.010;2022-10-16T10:20:46;3.35;;;0.93;;
70975;SDS011;58635;51.198;6.010;2022-10-16T10:23:26;4.60;;;1.40;;
70975;SDS011;58635;51.198;6.010;2022-10-16T10:26:02;3.33;;;1.40;;
70975;SDS011;58635;51.198;6.010;2022-10-16T10:28:49;2.90;;;0.93;;
70975;SDS011;58635;51.198;6.010;2022-10-16T10:31:38;2.58;;;0.90;;
70975;SDS011;58635;51.198;6.010;2022-10-16T10:34:26;5.45;;;1.35;;
70975;SDS011;58635;51.198;6.010;2022-10-16T10:37:04;3.33;;;1.30;;
70975;SDS011;58635;51.198;6.010;2022-10-16T10:39:40;4.07;;;0.98;;
70975;SDS011;58635;51.198;6.010;2022-10-16T10:45:16;5.78;;;1.38;;
70975;SDS011;58635;51.198;6.010;2022-10-16T10:50:25;3.25;;;0.98;;
70975;SDS011;58635;51.198;6.010;2022-10-16T10:53:30;4.13;;;1.27;;
70975;SDS011;58635;51.198;6.010;2022-10-16T11:01:29;2.20;;;0.98;;
70975;SDS011;58635;51.198;6.010;2022-10-16T11:06:50;3.25;;;0.95;;
70975;SDS011;58635;51.198;6.010;2022-10-16T11:09:27;5.28;;;1.20;;
70975;SDS011;58635;51.198;6.010;2022-10-16T11:14:41;2.95;;;1.55;;
70975;SDS011;58635;51.198;6.010;2022-10-16T11:17:14;4.75;;;1.70;;
70975;SDS011;58635;51.198;6.010;2022-10-16T11:22:39;4.43;;;1.00;;
70975;SDS011;58635;51.198;6.010;2022-10-16T11:25:13;4.13;;;1.17;;
70975;SDS011;58635;51.198;6.010;2022-10-16T11:27:40;4.07;;;1.20;;
70975;SDS011;58635;51.198;6.010;2022-10-16T11:30:23;3.53;;;0.98;;
70975;SDS011;58635;51.198;6.010;2022-10-16T11:35:39;5.43;;;1.42;;
70975;SDS011;58635;51.198;6.010;2022-10-16T11:38:20;4.22;;;1.15;;
70975;SDS011;58635;51.198;6.010;2022-10-16T11:40:56;4.72;;;1.20;;
70975;SDS011;58635;51.198;6.010;2022-10-16T11:43:31;4.25;;;1.05;;
70975;SDS011;58635;51.198;6.010;2022-10-16T11:46:21;2.93;;;1.07;;
70975;SDS011;58635;51.198;6.010;2022-10-16T11:49:08;2.95;;;0.90;;
70975;SDS011;58635;51.198;6.010;2022-10-16T11:51:42;3.60;;;1.00;;
70975;SDS011;58635;51.198;6.010;2022-10-16T11:56:48;2.72;;;1.00;;
70975;SDS011;58635;51.198;6.010;2022-10-16T12:07:14;3.08;;;1.00;;
70975;SDS011;58635;51.198;6.010;2022-10-16T12:09:42;4.55;;;1.48;;
70975;SDS011;58635;51.198;6.010;2022-10-16T12:15:03;4.95;;;1.17;;
70975;SDS011;58635;51.198;6.010;2022-10-16T12:17:48;3.00;;;0.70;;
70975;SDS011;58635;51.198;6.010;2022-10-16T12:22:47;3.63;;;1.00;;
70975;SDS011;58635;51.198;6.010;2022-10-16T12:30:54;3.10;;;0.95;;
70975;SDS011;58635;51.198;6.010;2022-10-16T12:35:55;3.67;;;1.15;;
70975;SDS011;58635;51.198;6.010;2022-10-16T12:38:27;2.60;;;0.90;;
70975;SDS011;58635;51.198;6.010;2022-10-16T12:41:01;3.60;;;1.17;;
70975;SDS011;58635;51.198;6.010;2022-10-16T12:49:37;5.10;;;0.93;;
70975;SDS011;58635;51.198;6.010;2022-10-16T12:51:54;6.40;;;2.50;;
70975;SDS011;58635;51.198;6.010;2022-10-16T12:54:25;4.95;;;1.27;;
70975;SDS011;58635;51.198;6.010;2022-10-16T13:07:56;2.25;;;0.80;;
70975;SDS011;58635;51.198;6.010;2022-10-16T13:15:44;2.40;;;0.77;;
70975;SDS011;58635;51.198;6.010;2022-10-16T13:21:45;2.00;;;0.80;;
70975;SDS011;58635;51.198;6.010;2022-10-16T13:24:20;5.07;;;1.63;;
70975;SDS011;58635;51.198;6.010;2022-10-16T13:26:50;6.00;;;1.02;;
70975;SDS011;58635;51.198;6.010;2022-10-16T13:29:22;3.90;;;0.98;;
70975;SDS011;58635;51.198;6.010;2022-10-16T13:31:48;3.53;;;0.85;;
70975;SDS011;58635;51.198;6.010;2022-10-16T13:34:16;4.05;;;0.88;;
70975;SDS011;58635;51.198;6.010;2022-10-16T13:36:47;2.72;;;0.95;;
70975;SDS011;58635;51.198;6.010;2022-10-16T13:39:24;4.30;;;1.15;;
70975;SDS011;58635;51.198;6.010;2022-10-16T13:44:28;3.92;;;0.95;;
70975;SDS011;58635;51.198;6.010;2022-10-16T13:47:00;4.07;;;0.80;;
70975;SDS011;58635;51.198;6.010;2022-10-16T13:49:26;4.15;;;1.00;;
70975;SDS011;58635;51.198;6.010;2022-10-16T13:51:56;5.80;;;1.20;;
70975;SDS011;58635;51.198;6.010;2022-10-16T13:54:23;4.05;;;0.80;;
70975;SDS011;58635;51.198;6.010;2022-10-16T13:56:49;5.25;;;2.60;;
70975;SDS011;58635;51.198;6.010;2022-10-16T13:59:25;6.43;;;2.78;;
70975;SDS011;58635;51.198;6.010;2022-10-16T14:01:57;3.55;;;2.00;;
70975;SDS011;58635;51.198;6.010;2022-10-16T14:04:23;2.90;;;1.40;;
70975;SDS011;58635;51.198;6.010;2022-10-16T14:06:54;4.72;;;1.15;;
70975;SDS011;58635;51.198;6.010;2022-10-16T14:11:53;3.97;;;1.30;;
70975;SDS011;58635;51.198;6.010;2022-10-16T14:14:22;2.85;;;1.00;;
70975;SDS011;58635;51.198;6.010;2022-10-16T14:16:49;3.90;;;2.10;;
70975;SDS011;58635;51.198;6.010;2022-10-16T14:19:21;5.60;;;2.00;;
70975;SDS011;58635;51.198;6.010;2022-10-16T14:21:51;3.53;;;1.80;;
70975;SDS011;58635;51.198;6.010;2022-10-16T14:24:24;3.78;;;1.38;;
70975;SDS011;58635;51.198;6.010;2022-10-16T14:26:56;3.33;;;0.90;;
70975;SDS011;58635;51.198;6.010;2022-10-16T14:29:22;3.63;;;1.60;;
70975;SDS011;58635;51.198;6.010;2022-10-16T14:31:55;3.60;;;0.90;;
70975;SDS011;58635;51.198;6.010;2022-10-16T14:34:23;3.53;;;0.95;;
70975;SDS011;58635;51.198;6.010;2022-10-16T14:36:58;2.05;;;0.80;;
70975;SDS011;58635;51.198;6.010;2022-10-16T14:39:42;2.65;;;0.80;;
70975;SDS011;58635;51.198;6.010;2022-10-16T14:42:14;3.45;;;1.10;;
70975;SDS011;58635;51.198;6.010;2022-10-16T14:44:44;4.47;;;1.50;;
70975;SDS011;58635;51.198;6.010;2022-10-16T14:47:12;4.40;;;1.50;;
70975;SDS011;58635;51.198;6.010;2022-10-16T14:49:41;4.60;;;1.10;;
70975;SDS011;58635;51.198;6.010;2022-10-16T14:52:10;3.33;;;1.05;;
70975;SDS011;58635;51.198;6.010;2022-10-16T14:54:37;3.45;;;0.93;;
70975;SDS011;58635;51.198;6.010;2022-10-16T14:57:02;4.05;;;1.63;;
70975;SDS011;58635;51.198;6.010;2022-10-16T14:59:46;5.88;;;1.80;;
70975;SDS011;58635;51.198;6.010;2022-10-16T15:04:41;5.28;;;1.15;;
70975;SDS011;58635;51.198;6.010;2022-10-16T15:07:07;3.72;;;1.10;;
70975;SDS011;58635;51.198;6.010;2022-10-16T15:09:33;3.05;;;1.00;;
70975;SDS011;58635;51.198;6.010;2022-10-16T15:11:58;5.97;;;1.50;;
70975;SDS011;58635;51.198;6.010;2022-10-16T15:14:24;3.97;;;1.17;;
70975;SDS011;58635;51.198;6.010;2022-10-16T15:16:49;5.57;;;2.55;;
70975;SDS011;58635;51.198;6.010;2022-10-16T15:19:14;4.95;;;2.08;;
70975;SDS011;58635;51.198;6.010;2022-10-16T15:21:40;4.47;;;1.88;;
70975;SDS011;58635;51.198;6.010;2022-10-16T15:24:08;4.22;;;1.95;;
70975;SDS011;58635;51.198;6.010;2022-10-16T15:26:36;4.88;;;1.50;;
70975;SDS011;58635;51.198;6.010;2022-10-16T15:29:02;4.07;;;1.55;;
70975;SDS011;58635;51.198;6.010;2022-10-16T15:31:27;5.35;;;2.67;;
70975;SDS011;58635;51.198;6.010;2022-10-16T15:33:53;13.25;;;5.93;;
70975;SDS011;58635;51.198;6.010;2022-10-16T15:36:26;9.27;;;2.90;;
70975;SDS011;58635;51.198;6.010;2022-10-16T15:38:53;4.57;;;2.10;;
70975;SDS011;58635;51.198;6.010;2022-10-16T15:41:19;5.22;;;2.22;;
70975;SDS011;58635;51.198;6.010;2022-10-16T15:43:44;4.93;;;2.55;;
70975;SDS011;58635;51.198;6.010;2022-10-16T15:46:13;4.72;;;2.20;;
70975;SDS011;58635;51.198;6.010;2022-10-16T15:48:39;6.28;;;2.20;;
70975;SDS011;58635;51.198;6.010;2022-10-16T15:51:05;3.83;;;1.70;;
70975;SDS011;58635;51.198;6.010;2022-10-16T15:53:32;3.85;;;1.50;;
70975;SDS011;58635;51.198;6.010;2022-10-16T15:56:01;4.18;;;1.50;;
70975;SDS011;58635;51.198;6.010;2022-10-16T15:58:27;4.95;;;1.48;;
70975;SDS011;58635;51.198;6.010;2022-10-16T16:00:56;3.88;;;1.50;;
70975;SDS011;58635;51.198;6.010;2022-10-16T16:03:22;4.22;;;2.00;;
70975;SDS011;58635;51.198;6.010;2022-10-16T16:05:48;5.57;;;1.60;;
70975;SDS011;58635;51.198;6.010;2022-10-16T16:08:14;5.68;;;1.77;;
70975;SDS011;58635;51.198;6.010;2022-10-16T16:10:39;3.92;;;1.38;;
70975;SDS011;58635;51.198;6.010;2022-10-16T16:13:05;3.13;;;1.40;;
70975;SDS011;58635;51.198;6.010;2022-10-16T16:15:30;2.83;;;1.55;;
70975;SDS011;58635;51.198;6.010;2022-10-16T16:17:55;5.63;;;1.58;;
70975;SDS011;58635;51.198;6.010;2022-10-16T16:20:21;5.68;;;1.58;;
70975;SDS011;58635;51.198;6.010;2022-10-16T16:22:46;4.32;;;1.67;;
70975;SDS011;58635;51.198;6.010;2022-10-16T16:25:12;4.65;;;2.10;;
70975;SDS011;58635;51.198;6.010;2022-10-16T16:27:37;6.60;;;2.05;;
70975;SDS011;58635;51.198;6.010;2022-10-16T16:30:03;5.97;;;1.83;;
70975;SDS011;58635;51.198;6.010;2022-10-16T16:32:32;6.13;;;2.60;;
70975;SDS011;58635;51.198;6.010;2022-10-16T16:34:58;7.63;;;3.53;;
70975;SDS011;58635;51.198;6.010;2022-10-16T16:37:23;4.32;;;1.67;;
70975;SDS011;58635;51.198;6.010;2022-10-16T16:39:49;5.15;;;2.35;;
70975;SDS011;58635;51.198;6.010;2022-10-16T16:42:14;4.28;;;2.20;;
70975;SDS011;58635;51.198;6.010;2022-10-16T16:44:40;6.10;;;2.03;;
70975;SDS011;58635;51.198;6.010;2022-10-16T16:47:05;4.88;;;1.65;;
70975;SDS011;58635;51.198;6.010;2022-10-16T16:49:31;3.33;;;1.48;;